createdAt,value
2018-12-30T00:01:18.610Z,94819.50
2018-12-30T00:04:27.206Z,94812.64
2018-12-30T00:06:57.660Z,94805.09
2018-12-30T00:12:21.303Z,94798.77
2018-12-30T00:14:50.275Z,94782.47
2018-12-30T00:17:21.147Z,94792.55
2018-12-30T00:19:49.902Z,94796.69
2018-12-30T00:22:38.113Z,94797.13
2018-12-30T00:25:06.916Z,94804.63
2018-12-30T00:27:35.794Z,94803.02
2018-12-30T00:30:44.724Z,94803.64
2018-12-30T00:33:13.520Z,94788.20
2018-12-30T00:35:42.402Z,94788.05
2018-12-30T00:38:11.291Z,94785.52
2018-12-30T00:40:40.303Z,94793.34
2018-12-30T00:43:09.078Z,94790.23
2018-12-30T00:45:37.868Z,94796.00
2018-12-30T00:48:06.660Z,94783.17
2018-12-30T00:50:49.054Z,94778.23
2018-12-30T00:53:07.666Z,94774.55
2018-12-30T00:55:36.427Z,94781.05
2018-12-30T00:58:05.393Z,94796.92
2018-12-30T01:00:34.181Z,94788.19
2018-12-30T01:03:03.053Z,94804.83
2018-12-30T01:05:31.858Z,94784.72
2018-12-30T01:08:00.640Z,94760.73
2018-12-30T01:10:48.649Z,94774.65
2018-12-30T01:13:17.584Z,94777.11
2018-12-30T01:15:46.425Z,94801.11
2018-12-30T01:18:15.219Z,94798.73
2018-12-30T01:20:43.952Z,94802.55
2018-12-30T01:23:12.742Z,94798.31
2018-12-30T01:25:41.586Z,94816.52
2018-12-30T01:31:25.669Z,94811.30
2018-12-30T01:33:54.461Z,94822.34
2018-12-30T01:36:23.180Z,94814.70
2018-12-30T01:38:51.981Z,94819.26
2018-12-30T01:41:20.750Z,94819.99
2018-12-30T01:44:04.113Z,94829.74
2018-12-30T01:46:20.084Z,94831.88
2018-12-30T01:48:48.812Z,94844.97
2018-12-30T01:54:12.138Z,94868.68
2018-12-30T01:56:40.869Z,94876.94
2018-12-30T01:59:09.655Z,94894.03
2018-12-30T02:01:38.391Z,94908.31
2018-12-30T02:04:07.212Z,94897.44
2018-12-30T02:06:36.019Z,94898.88
2018-12-30T02:09:44.570Z,94904.36
2018-12-30T02:12:13.392Z,94905.63
2018-12-30T02:14:42.184Z,94904.70
2018-12-30T02:17:25.543Z,94901.81
2018-12-30T02:19:44.022Z,94908.86
2018-12-30T02:25:20.950Z,94884.77
2018-12-30T02:28:29.505Z,94897.81
2018-12-30T02:30:58.287Z,94888.83
2018-12-30T02:33:41.700Z,94877.73
2018-12-30T02:35:57.538Z,94876.20
2018-12-30T02:38:26.332Z,94866.27
2018-12-30T02:40:55.080Z,94867.48
2018-12-30T02:43:35.942Z,94866.67
2018-12-30T02:45:54.363Z,94866.06
2018-12-30T02:48:36.719Z,94870.08
2018-12-30T02:50:55.295Z,94864.88
2018-12-30T02:53:25.905Z,94857.82
2018-12-30T02:55:54.685Z,94844.72
2018-12-30T02:58:23.437Z,94832.48
2018-12-30T03:00:52.523Z,94818.37
2018-12-30T03:06:10.372Z,94812.36
2018-12-30T03:09:19.005Z,94810.89
2018-12-30T03:11:47.981Z,94806.95
2018-12-30T03:14:18.973Z,94792.56
2018-12-30T03:16:47.702Z,94784.81
2018-12-30T03:19:16.453Z,94789.86
2018-12-30T03:21:45.229Z,94780.17
2018-12-30T03:24:13.973Z,94780.45
2018-12-30T03:27:02.021Z,94781.20
2018-12-30T03:29:49.852Z,94783.62
2018-12-30T03:32:18.632Z,94778.25
2018-12-30T03:34:47.420Z,94775.58
2018-12-30T03:37:16.142Z,94773.53
2018-12-30T03:39:45.023Z,94783.25
2018-12-30T03:42:14.040Z,94780.42
2018-12-30T03:44:42.737Z,94777.05
2018-12-30T03:47:11.553Z,94778.25
2018-12-30T03:49:40.330Z,94776.84
2018-12-30T03:52:09.186Z,94774.20
2018-12-30T03:54:37.924Z,94774.67
2018-12-30T03:57:06.654Z,94783.50
2018-12-30T03:59:35.765Z,94783.48
2018-12-30T04:02:44.477Z,94768.98
2018-12-30T04:05:13.195Z,94773.88
2018-12-30T04:07:41.991Z,94766.20
2018-12-30T04:10:10.752Z,94766.81
2018-12-30T04:12:39.548Z,94762.98
2018-12-30T04:15:08.313Z,94762.03
2018-12-30T04:17:37.132Z,94761.56
2018-12-30T04:20:26.651Z,94769.01
2018-12-30T04:22:55.568Z,94770.06
2018-12-30T04:25:24.246Z,94768.28
2018-12-30T04:27:53.041Z,94773.95
2018-12-30T04:30:21.931Z,94767.48
2018-12-30T04:32:50.723Z,94774.61
2018-12-30T04:35:19.502Z,94767.00
2018-12-30T04:43:23.290Z,94778.75
2018-12-30T04:45:52.016Z,94775.95
2018-12-30T04:48:32.828Z,94773.55
2018-12-30T04:50:51.440Z,94784.17
2018-12-30T04:56:07.909Z,94780.65
2018-12-30T05:01:50.652Z,94778.06
2018-12-30T05:04:50.412Z,94771.87
2018-12-30T05:07:09.219Z,94765.64
2018-12-30T05:09:38.073Z,94770.55
2018-12-30T05:12:07.174Z,94768.94
2018-12-30T05:14:35.924Z,94766.30
2018-12-30T05:17:04.771Z,94777.66
2018-12-30T05:19:33.643Z,94780.16
2018-12-30T05:22:02.441Z,94795.36
2018-12-30T05:24:31.158Z,94788.34
2018-12-30T05:27:00.020Z,94796.98
2018-12-30T05:32:25.757Z,94796.17
2018-12-30T05:35:13.666Z,94792.63
2018-12-30T05:37:42.384Z,94792.81
2018-12-30T05:40:11.154Z,94795.98
2018-12-30T05:42:39.940Z,94791.91
2018-12-30T05:45:51.526Z,94786.48
2018-12-30T05:48:20.332Z,94795.63
2018-12-30T05:50:49.228Z,94793.79
2018-12-30T05:56:07.086Z,94794.31
2018-12-30T05:58:35.965Z,94792.23
2018-12-30T06:01:04.855Z,94796.30
2018-12-30T06:03:33.643Z,94789.99
2018-12-30T06:06:02.528Z,94794.14
2018-12-30T06:08:31.426Z,94786.20
2018-12-30T06:11:00.220Z,94785.41
2018-12-30T06:13:29.136Z,94784.12
2018-12-30T06:15:57.963Z,94784.17
2018-12-30T06:18:26.790Z,94792.17
2018-12-30T06:21:35.409Z,94792.52
2018-12-30T06:24:04.189Z,94797.34
2018-12-30T06:26:32.905Z,94795.47
2018-12-30T06:29:20.726Z,94802.53
2018-12-30T06:31:49.483Z,94809.59
2018-12-30T06:34:18.255Z,94810.91
2018-12-30T06:36:47.036Z,94813.75
2018-12-30T06:39:27.769Z,94806.84
2018-12-30T06:41:46.487Z,94807.03
2018-12-30T06:44:15.202Z,94803.66
2018-12-30T06:46:55.666Z,94809.39
2018-12-30T06:49:35.505Z,94802.39
2018-12-30T06:52:04.307Z,94799.97
2018-12-30T06:54:47.331Z,94801.58
2018-12-30T06:57:03.827Z,94802.81
2018-12-30T07:00:18.275Z,94803.91
2018-12-30T07:02:26.450Z,94811.77
2018-12-30T07:04:55.174Z,94810.68
2018-12-30T07:07:23.958Z,94814.25
2018-12-30T07:09:54.602Z,94812.07
2018-12-30T07:12:42.735Z,94817.56
2018-12-30T07:15:30.749Z,94824.63
2018-12-30T07:17:59.536Z,94824.39
2018-12-30T07:20:47.557Z,94818.94
2018-12-30T07:23:16.327Z,94832.25
2018-12-30T07:25:57.254Z,94828.75
2018-12-30T07:28:15.707Z,94840.27
2018-12-30T07:31:58.802Z,94830.50
2018-12-30T07:33:36.738Z,94837.42
2018-12-30T07:36:17.169Z,94841.25
2018-12-30T07:38:36.009Z,94839.05
2018-12-30T07:41:06.590Z,94834.59
2018-12-30T07:43:35.409Z,94844.21
2018-12-30T07:46:04.141Z,94832.41
2018-12-30T07:48:52.513Z,94827.95
2018-12-30T07:51:21.398Z,94826.05
2018-12-30T07:53:50.092Z,94828.66
2018-12-30T07:56:18.873Z,94829.61
2018-12-30T07:58:47.600Z,94818.72
2018-12-30T08:01:28.492Z,94822.27
2018-12-30T08:03:46.914Z,94833.97
2018-12-30T08:06:15.709Z,94833.17
2018-12-30T08:08:44.492Z,94822.68
2018-12-30T08:11:13.224Z,94828.13
2018-12-30T08:13:42.013Z,94824.00
2018-12-30T08:16:10.732Z,94838.33
2018-12-30T08:18:39.716Z,94838.80
2018-12-30T08:21:10.458Z,94846.67
2018-12-30T08:24:19.060Z,94841.14
2018-12-30T08:26:47.818Z,94842.42
2018-12-30T08:29:16.588Z,94839.57
2018-12-30T08:31:45.367Z,94835.73
2018-12-30T08:34:15.995Z,94845.58
2018-12-30T08:36:44.775Z,94851.52
2018-12-30T08:39:13.546Z,94853.03
2018-12-30T08:41:42.477Z,94850.80
2018-12-30T08:44:51.096Z,94857.77
2018-12-30T08:47:19.815Z,94855.22
2018-12-30T08:49:48.637Z,94858.23
2018-12-30T08:52:17.392Z,94864.16
2018-12-30T08:54:46.159Z,94863.03
2018-12-30T08:57:14.862Z,94871.03
2018-12-30T09:00:19.934Z,94879.06
2018-12-30T09:02:36.371Z,94876.49
2018-12-30T09:08:13.280Z,94881.29
2018-12-30T09:10:42.020Z,94883.17
2018-12-30T09:13:10.802Z,94882.57
2018-12-30T09:15:42.153Z,94880.86
2018-12-30T09:18:50.700Z,94890.95
2018-12-30T09:21:38.952Z,94893.05
2018-12-30T09:24:07.951Z,94890.34
2018-12-30T09:26:36.768Z,94891.53
2018-12-30T09:29:05.714Z,94898.02
2018-12-30T09:31:34.505Z,94895.27
2018-12-30T09:34:03.350Z,94892.67
2018-12-30T09:36:32.201Z,94892.91
2018-12-30T09:39:00.921Z,94894.98
2018-12-30T09:41:32.899Z,94888.88
2018-12-30T09:44:01.667Z,94892.57
2018-12-30T09:46:30.495Z,94892.86
2018-12-30T09:48:59.296Z,94887.16
2018-12-30T09:51:47.087Z,94879.77
2018-12-30T09:54:15.862Z,94884.80
2018-12-30T09:59:33.872Z,94889.31
2018-12-30T10:02:23.204Z,94886.31
2018-12-30T10:04:52.029Z,94889.91
2018-12-30T10:07:20.738Z,94897.93
2018-12-30T10:09:49.484Z,94891.05
2018-12-30T10:14:57.750Z,94899.08
2018-12-30T10:17:43.802Z,94897.51
2018-12-30T10:20:00.158Z,94894.66
2018-12-30T10:22:28.835Z,94898.54
2018-12-30T10:24:57.683Z,94905.95
2018-12-30T10:30:21.543Z,94903.61
2018-12-30T10:35:45.021Z,94901.44
2018-12-30T10:38:13.777Z,94904.18
2018-12-30T10:40:43.764Z,94914.30
2018-12-30T10:46:07.749Z,94901.78
2018-12-30T10:48:38.125Z,94908.33
2018-12-30T10:51:06.875Z,94905.41
2018-12-30T10:53:35.637Z,94902.00
2018-12-30T10:56:04.373Z,94899.52
2018-12-30T11:01:27.330Z,94903.75
2018-12-30T11:03:56.182Z,94906.22
2018-12-30T11:07:00.070Z,94909.28
2018-12-30T11:12:02.030Z,94909.44
2018-12-30T11:14:40.061Z,94901.71
2018-12-30T11:17:08.956Z,94904.83
2018-12-30T11:22:32.439Z,94896.33
2018-12-30T11:25:01.221Z,94887.98
2018-12-30T11:27:30.028Z,94885.59
2018-12-30T11:30:38.667Z,94879.52
2018-12-30T11:33:07.571Z,94873.72
2018-12-30T11:35:36.326Z,94885.23
2018-12-30T11:38:05.117Z,94887.53
2018-12-30T11:43:21.561Z,94889.52
2018-12-30T11:45:50.464Z,94899.41
2018-12-30T11:48:19.314Z,94897.35
2018-12-30T11:51:28.093Z,94894.24
2018-12-30T11:56:46.006Z,94890.53
2018-12-30T11:59:14.741Z,94899.44
2018-12-30T12:01:43.627Z,94901.64
2018-12-30T12:04:12.436Z,94909.76
2018-12-30T12:07:21.061Z,94905.70
2018-12-30T12:09:49.812Z,94906.43
2018-12-30T12:12:20.536Z,94903.10
2018-12-30T12:14:49.326Z,94902.41
2018-12-30T12:17:37.525Z,94907.31
2018-12-30T12:20:06.345Z,94913.65
2018-12-30T12:23:13.568Z,94899.66
2018-12-30T12:25:42.632Z,94915.47
2018-12-30T12:28:11.407Z,94927.44
2018-12-30T12:30:40.227Z,94914.15
2018-12-30T12:33:08.957Z,94914.19
2018-12-30T12:35:52.095Z,94917.92
2018-12-30T12:38:19.892Z,94931.40
2018-12-30T12:41:00.482Z,94935.53
2018-12-30T12:46:19.895Z,94936.88
2018-12-30T12:49:00.875Z,94949.73
2018-12-30T12:51:21.702Z,94951.34
2018-12-30T12:53:50.426Z,94951.81
2018-12-30T12:59:13.777Z,94962.83
2018-12-30T13:01:54.304Z,94974.50
2018-12-30T13:04:13.014Z,94971.78
2018-12-30T13:09:17.713Z,94984.41
2018-12-30T13:11:46.491Z,94975.59
2018-12-30T13:15:07.061Z,94973.59
2018-12-30T13:17:25.712Z,94975.60
2018-12-30T13:20:09.255Z,94982.34
2018-12-30T13:22:25.000Z,94993.53
2018-12-30T13:24:53.913Z,95003.12
2018-12-30T13:27:22.766Z,95011.47
2018-12-30T13:29:51.632Z,95004.69
2018-12-30T13:32:20.603Z,95010.14
2018-12-30T13:34:49.408Z,95019.02
2018-12-30T13:37:18.224Z,95022.38
2018-12-30T13:39:58.802Z,95019.30
2018-12-30T13:44:51.603Z,95026.28
2018-12-30T13:47:32.379Z,95030.73
2018-12-30T13:50:10.414Z,95047.97
2018-12-30T13:56:17.580Z,95056.51
2018-12-30T13:58:53.707Z,95058.50
2018-12-30T14:04:49.329Z,95067.11
2018-12-30T14:07:08.554Z,95068.86
2018-12-30T14:09:37.354Z,95072.89
2018-12-30T14:12:06.228Z,95085.37
2018-12-30T14:15:15.019Z,95077.55
2018-12-30T14:20:19.614Z,95076.98
2018-12-30T14:23:28.336Z,95084.20
2018-12-30T14:25:58.952Z,95087.53
2018-12-30T14:28:27.758Z,95100.19
2018-12-30T14:31:15.533Z,95105.97
2018-12-30T14:36:19.889Z,95100.73
2018-12-30T14:39:02.988Z,95103.10
2018-12-30T14:41:19.167Z,95113.47
2018-12-30T14:44:07.091Z,95118.95
2018-12-30T14:46:35.943Z,95116.86
2018-12-30T14:49:04.820Z,95114.77
2018-12-30T14:51:33.612Z,95108.91
2018-12-30T14:54:02.412Z,95105.59
2018-12-30T14:59:39.428Z,95119.15
2018-12-30T15:02:27.516Z,95117.12
2018-12-30T15:07:32.007Z,95123.19
2018-12-30T15:10:00.867Z,95129.31
2018-12-30T15:12:29.613Z,95137.34
2018-12-30T15:17:36.200Z,95126.70
2018-12-30T15:20:25.732Z,95124.93
2018-12-30T15:29:03.839Z,95137.96
2018-12-30T15:31:32.600Z,95145.58
2018-12-30T15:34:01.608Z,95156.03
2018-12-30T15:36:30.660Z,95153.71
2018-12-30T15:38:59.549Z,95161.20
2018-12-30T15:41:28.559Z,95165.91
2018-12-30T15:44:18.114Z,95162.89
2018-12-30T15:46:46.987Z,95158.16
2018-12-30T15:49:15.800Z,95154.37
2018-12-30T15:51:44.701Z,95158.45
2018-12-30T15:54:25.460Z,95168.42
2018-12-30T15:56:56.019Z,95162.95
2018-12-30T16:11:05.931Z,95184.35
2018-12-30T16:13:35.443Z,95168.22
2018-12-30T16:16:42.927Z,95161.30
2018-12-30T16:19:13.689Z,95161.16
2018-12-30T16:22:03.133Z,95154.65
2018-12-30T16:24:32.247Z,95164.52
2018-12-30T16:27:01.258Z,95164.22
2018-12-30T16:29:30.177Z,95163.09
2018-12-30T16:31:59.495Z,95167.25
2018-12-30T16:34:28.484Z,95169.90
2018-12-30T16:36:57.599Z,95168.75
2018-12-30T16:39:26.767Z,95161.25
2018-12-30T16:41:55.687Z,95154.80
2018-12-30T16:44:24.846Z,95161.85
2018-12-30T16:47:12.747Z,95169.84
2018-12-30T16:49:41.688Z,95175.58
2018-12-30T16:52:10.771Z,95173.41
2018-12-30T16:57:15.560Z,95158.63
2018-12-30T16:59:44.784Z,95165.98
2018-12-30T17:02:34.105Z,95161.66
2018-12-30T17:05:02.915Z,95172.39
2018-12-30T17:07:31.834Z,95170.83
2018-12-30T17:10:00.741Z,95179.42
2018-12-30T17:12:32.199Z,95169.90
2018-12-30T17:15:02.455Z,95173.41
2018-12-30T17:17:31.286Z,95172.73
2018-12-30T17:20:00.178Z,95164.67
2018-12-30T17:22:28.983Z,95169.09
2018-12-30T17:24:57.725Z,95173.70
2018-12-30T17:27:45.953Z,95166.94
2018-12-30T17:30:14.813Z,95181.72
2018-12-30T17:32:43.734Z,95169.37
2018-12-30T17:35:12.498Z,95180.75
2018-12-30T17:37:41.448Z,95167.52
2018-12-30T17:40:10.394Z,95184.94
2018-12-30T17:42:39.360Z,95168.11
2018-12-30T17:45:08.311Z,95174.96
2018-12-30T17:48:17.018Z,95190.06
2018-12-30T17:51:05.319Z,95194.19
2018-12-30T17:53:34.105Z,95191.44
2018-12-30T17:56:02.917Z,95174.96
2018-12-30T17:58:31.840Z,95185.69
2018-12-30T18:01:39.334Z,95185.63
2018-12-30T18:04:08.460Z,95203.34
2018-12-30T18:06:37.407Z,95192.45
2018-12-30T18:09:46.162Z,95191.89
2018-12-30T18:12:15.439Z,95204.86
2018-12-30T18:14:44.458Z,95206.86
2018-12-30T18:17:13.339Z,95201.30
2018-12-30T18:19:42.526Z,95205.95
2018-12-30T18:22:11.422Z,95210.23
2018-12-30T18:24:40.428Z,95203.19
2018-12-30T18:29:44.836Z,95214.12
2018-12-30T18:32:14.136Z,95212.91
2018-12-30T18:34:43.071Z,95208.73
2018-12-30T18:37:26.575Z,95212.46
2018-12-30T18:39:42.986Z,95202.06
2018-12-30T18:42:51.723Z,95204.38
2018-12-30T18:45:32.050Z,95216.45
2018-12-30T18:48:01.107Z,95223.83
2018-12-30T18:50:30.324Z,95216.36
2018-12-30T18:52:59.290Z,95208.02
2018-12-30T18:55:40.316Z,95207.91
2018-12-30T19:00:39.745Z,95188.73
2018-12-30T19:03:08.652Z,95213.60
2018-12-30T19:05:56.794Z,95197.80
2018-12-30T19:08:40.227Z,95199.92
2018-12-30T19:13:32.212Z,95188.25
2018-12-30T19:18:50.452Z,95195.69
2018-12-30T19:21:19.528Z,95191.37
2018-12-30T19:23:48.866Z,95185.41
2018-12-30T19:26:36.947Z,95184.33
2018-12-30T19:29:07.078Z,95181.42
2018-12-30T19:31:36.102Z,95182.34
2018-12-30T19:34:04.893Z,95181.30
2018-12-30T19:36:53.017Z,95193.16
2018-12-30T19:39:21.893Z,95163.84
2018-12-30T19:41:50.670Z,95166.88
2018-12-30T19:44:19.660Z,95169.09
2018-12-30T19:46:48.652Z,95167.62
2018-12-30T19:49:17.670Z,95166.00
2018-12-30T19:51:46.658Z,95163.16
2018-12-30T19:54:46.779Z,95171.52
2018-12-30T19:57:05.347Z,95172.60
2018-12-30T19:59:34.519Z,95176.06
2018-12-30T20:02:03.420Z,95172.89
2018-12-30T20:04:51.606Z,95165.55
2018-12-30T20:07:20.438Z,95175.52
2018-12-30T20:10:03.597Z,95178.69
2018-12-30T20:12:19.986Z,95179.97
2018-12-30T20:15:03.435Z,95176.19
2018-12-30T20:17:20.638Z,95183.95
2018-12-30T20:19:49.550Z,95172.89
2018-12-30T20:22:18.425Z,95172.19
2018-12-30T20:24:47.395Z,95178.13
2018-12-30T20:27:16.888Z,95174.30
2018-12-30T20:30:09.314Z,95172.61
2018-12-30T20:32:39.872Z,95170.66
2018-12-30T20:35:09.091Z,95166.48
2018-12-30T20:37:38.271Z,95164.88
2018-12-30T20:45:23.609Z,95170.47
2018-12-30T20:47:52.480Z,95163.17
2018-12-30T20:50:21.528Z,95171.25
2018-12-30T20:53:05.003Z,95172.26
2018-12-30T20:55:21.137Z,95171.39
2018-12-30T21:00:56.439Z,95161.95
2018-12-30T21:03:25.723Z,95174.31
2018-12-30T21:05:57.054Z,95166.63
2018-12-30T21:08:25.793Z,95162.31
2018-12-30T21:10:54.777Z,95162.64
2018-12-30T21:16:18.709Z,95164.45
2018-12-30T21:18:47.493Z,95173.82
2018-12-30T21:21:16.414Z,95180.70
2018-12-30T21:26:45.418Z,95170.94
2018-12-30T21:29:10.835Z,95180.98
2018-12-30T21:31:39.689Z,95174.48
2018-12-30T21:34:08.701Z,95177.86
2018-12-30T21:36:37.601Z,95176.80
2018-12-30T21:39:46.213Z,95179.23
2018-12-30T21:42:15.019Z,95185.34
2018-12-30T21:44:43.766Z,95187.16
2018-12-30T21:47:12.562Z,95190.39
2018-12-30T21:49:41.385Z,95180.28
2018-12-30T21:52:10.201Z,95185.69
2018-12-30T21:57:26.539Z,95175.70
2018-12-30T22:00:14.657Z,95181.80
2018-12-30T22:03:02.687Z,95181.33
2018-12-30T22:05:31.469Z,95181.50
2018-12-30T22:08:00.270Z,95176.34
2018-12-30T22:10:29.043Z,95172.22
2018-12-30T22:12:58.003Z,95182.91
2018-12-30T22:15:26.819Z,95183.86
2018-12-30T22:17:58.593Z,95185.61
2018-12-30T22:20:27.523Z,95180.02
2018-12-30T22:22:56.451Z,95177.34
2018-12-30T22:25:25.244Z,95176.40
2018-12-30T22:27:54.046Z,95172.50
2018-12-30T22:30:22.874Z,95168.37
2018-12-30T22:32:53.537Z,95170.10
2018-12-30T22:38:30.514Z,95164.58
2018-12-30T22:41:21.031Z,95185.50
2018-12-30T22:44:10.621Z,95177.59
2018-12-30T22:46:39.459Z,95167.70
2018-12-30T22:49:08.390Z,95170.58
2018-12-30T22:51:37.137Z,95173.70
2018-12-30T22:54:05.931Z,95167.44
2018-12-30T22:56:36.907Z,95173.14
2018-12-30T22:59:05.796Z,95171.47
2018-12-30T23:01:34.618Z,95173.84
2018-12-30T23:04:03.405Z,95168.44
2018-12-30T23:06:32.152Z,95157.50
2018-12-30T23:09:00.958Z,95151.23
2018-12-30T23:14:17.256Z,95162.65
2018-12-30T23:16:45.977Z,95155.30
2018-12-30T23:19:14.754Z,95158.86
2018-12-30T23:22:02.562Z,95153.13
2018-12-30T23:24:31.309Z,95149.95
2018-12-30T23:27:02.533Z,95168.50
2018-12-30T23:29:31.278Z,95165.33
2018-12-30T23:32:39.907Z,95158.30
2018-12-30T23:41:23.379Z,95156.08
2018-12-30T23:43:52.097Z,95167.63
2018-12-30T23:46:21.242Z,95173.29
2018-12-30T23:51:24.263Z,95172.61
2018-12-30T23:53:53.025Z,95177.08
2018-12-30T23:56:21.735Z,95173.55
2018-12-30T23:59:01.891Z,95176.44
